world map with LPFR marked

LPFR - Airport

This information may not be accurate or current and is not valid for navigation or flight planning. No warranty of fitness for any purpose is made or implied.

flag of Portugal

Donate via PayPal

Additional information is available on the NEW Great Circle Mapper

Location
City:  Faro, Faro, Portugal
ICAO / IATA:LPFR / FAO

Details
Type:Airport (Aerodrome, Airfield)
Use:Public/Civil
Latitude:37°00'52"N (37.014425)
Longitude:7°57'57"W (-7.965910)
Datum:WGS 1984
Elevation:24 ft (7 m)
Runways:1
Longest:8169 × 148 ft (2490 × 45 m)

Time
Timezone:UTC+0 (DST+3)
Local Time:

Weather
METAR:LPFR  041400Z 11009KT CAVOK 15/02 Q1028
TAF:LPFR  041100Z 0412/0512 09010KT CAVOK BECMG 0417/0420 03005KT BECMG 0508/0510 09008KT

Related Locations
Nearby:
Farthest:NZRW: 12314 mi / 19818 km
Ruawai, NTL, NZ

Find:

   beyond  
but within

Other Information
Maps:
Sources:

  


 


Great Circle Mapper   Great Circle Mapper
Great Circle Mapper FAQ   Great Circle Mapper FAQ
  Karl's Home Page
KLSē   KLSē Home
   GC on Facebook
Airlines of the World   Airlines of the World
Donate via PayPal


Copyright © 2004-2019, Karl L. Swartz. All rights reserved.
All trademarks mentioned herein belong to their respective owners.

Please see credits for attribution and copyright information.

Karl Swartz <karl@kls2.com>
  Powered by FreeBSD
Valid HTML 4.01!
Labeled with ICRA
hCard Microformat
Geo Microformat